Terminal Aerodrome Forecast
Issued by NWS

Home | Current Version | Previous Version | Graphics & Text | Print | Product List | Glossary On
Versions: 1 2 3 4 5 6 7 8 9 10 11 12 13 14 15 16 17 18 19 20 21 22 23 24 25
000
FTUS43 KLOT 010534
TAFDPA
TAF
KDPA 010534Z 0106/0206 25013G20KT P6SM VCSH OVC020
      TEMPO 0107/0111 6SM -SHSN BR OVC014
     FM011100 27012G18KT P6SM OVC010
     FM011500 27013G21KT P6SM OVC025
     FM020100 26009KT P6SM OVC020=

USA.gov is the U.S. government's official web portal to all federal, state and local government web resources and services.